createdAt,value
2018-05-08T00:00:08.716Z,94213.05
2018-05-08T00:02:37.115Z,94212.84
2018-05-08T00:05:05.609Z,94209.30
2018-05-08T00:07:34.011Z,94210.20
2018-05-08T00:10:02.505Z,94216.02
2018-05-08T00:12:30.935Z,94208.03
2018-05-08T00:14:59.342Z,94215.70
2018-05-08T00:17:27.779Z,94210.26
2018-05-08T00:19:56.192Z,94213.88
2018-05-08T00:22:24.616Z,94209.54
2018-05-08T00:24:53.018Z,94213.22
2018-05-08T00:27:21.458Z,94208.34
2018-05-08T00:29:49.869Z,94206.40
2018-05-08T00:32:18.319Z,94201.33
2018-05-08T00:34:46.724Z,94203.77
2018-05-08T00:37:15.152Z,94201.28
2018-05-08T00:39:43.614Z,94200.55
2018-05-08T00:42:12.002Z,94206.24
2018-05-08T00:44:40.396Z,94200.28
2018-05-08T00:47:08.847Z,94201.98
2018-05-08T00:49:37.306Z,94202.45
2018-05-08T00:52:05.791Z,94193.55
2018-05-08T00:54:45.976Z,94192.59
2018-05-08T00:57:14.378Z,94168.98
2018-05-08T00:59:42.813Z,94192.44
2018-05-08T01:02:11.247Z,94189.12
2018-05-08T01:04:39.688Z,94191.70
2018-05-08T01:07:08.098Z,94158.64
2018-05-08T01:09:36.552Z,94185.23
2018-05-08T01:12:04.990Z,94187.97
2018-05-08T01:14:33.448Z,94180.99
2018-05-08T01:17:01.907Z,94177.72
2018-05-08T01:19:30.386Z,94178.40
2018-05-08T01:21:58.894Z,94176.44
2018-05-08T01:24:27.328Z,94174.48
2018-05-08T01:26:55.789Z,94173.25
2018-05-08T01:29:24.226Z,94162.70
2018-05-08T01:31:52.676Z,94168.06
2018-05-08T01:34:21.122Z,94167.01
2018-05-08T01:36:49.571Z,94163.58
2018-05-08T01:39:17.967Z,94151.66
2018-05-08T01:41:46.379Z,94135.78
2018-05-08T01:44:14.900Z,94146.48
2018-05-08T01:46:43.326Z,94150.92
2018-05-08T01:49:11.779Z,94146.97
2018-05-08T01:51:40.229Z,94146.95
2018-05-08T01:54:08.675Z,94145.81
2018-05-08T01:56:37.086Z,94138.98
2018-05-08T01:59:05.520Z,94138.31
2018-05-08T02:01:34.107Z,94141.92
2018-05-08T02:04:02.544Z,94138.27
2018-05-08T02:06:31.060Z,94134.89
2018-05-08T02:08:59.450Z,94135.28
2018-05-08T02:11:27.960Z,94136.99
2018-05-08T02:13:56.392Z,94129.80
2018-05-08T02:16:24.845Z,94129.12
2018-05-08T02:18:54.016Z,94130.92
2018-05-08T02:21:22.409Z,94135.45
2018-05-08T02:23:50.955Z,94142.97
2018-05-08T02:26:19.352Z,94143.42
2018-05-08T02:28:47.820Z,94139.95
2018-05-08T02:31:16.257Z,94125.84
2018-05-08T02:33:44.718Z,94131.61
2018-05-08T02:36:13.105Z,94140.69
2018-05-08T02:38:41.555Z,94138.64
2018-05-08T02:41:09.964Z,94132.80
2018-05-08T02:43:38.394Z,94133.45
2018-05-08T02:46:06.821Z,94133.88
2018-05-08T02:48:35.332Z,94129.56
2018-05-08T02:51:03.719Z,94136.39
2018-05-08T02:53:32.171Z,94138.86
2018-05-08T02:56:00.595Z,94132.77
2018-05-08T02:58:28.973Z,94142.09
2018-05-08T03:00:57.374Z,94134.70
2018-05-08T03:03:25.818Z,94138.76
2018-05-08T03:05:54.283Z,94137.66
2018-05-08T03:08:22.688Z,94134.20
2018-05-08T03:10:51.155Z,94132.89
2018-05-08T03:13:19.600Z,94134.94
2018-05-08T03:15:48.236Z,94113.17
2018-05-08T03:18:16.739Z,94127.41
2018-05-08T03:20:45.152Z,94127.64
2018-05-08T03:23:13.599Z,94130.98
2018-05-08T03:25:41.998Z,94132.12
2018-05-08T03:28:10.477Z,94127.75
2018-05-08T03:30:38.913Z,94129.20
2018-05-08T03:33:07.390Z,94122.22
2018-05-08T03:35:35.794Z,94131.42
2018-05-08T03:38:04.232Z,94130.09
2018-05-08T03:40:32.661Z,94124.00
2018-05-08T03:43:01.059Z,94110.39
2018-05-08T03:45:29.507Z,94128.14
2018-05-08T03:47:57.929Z,94127.55
2018-05-08T03:50:26.379Z,94124.53
2018-05-08T03:52:54.783Z,94129.66
2018-05-08T03:55:23.179Z,94125.44
2018-05-08T03:57:51.610Z,94125.97
2018-05-08T04:00:31.936Z,94127.19
2018-05-08T04:03:12.183Z,94124.22
2018-05-08T04:05:50.572Z,94135.33
2018-05-08T04:08:37.471Z,94131.02
2018-05-08T04:11:05.908Z,94140.02
2018-05-08T04:13:34.456Z,94134.39
2018-05-08T04:16:02.884Z,94139.63
2018-05-08T04:18:31.339Z,94143.39
2018-05-08T04:20:59.812Z,94143.70
2018-05-08T04:23:28.295Z,94144.38
2018-05-08T04:25:56.691Z,94142.00
2018-05-08T04:28:25.099Z,94141.61
2018-05-08T04:30:53.547Z,94150.30
2018-05-08T04:33:21.975Z,94144.64
2018-05-08T04:35:50.427Z,94134.47
2018-05-08T04:38:18.861Z,94137.09
2018-05-08T04:40:47.376Z,94117.45
2018-05-08T04:43:16.508Z,94132.96
2018-05-08T04:45:44.924Z,94129.41
2018-05-08T04:48:13.405Z,94102.65
2018-05-08T04:50:41.834Z,94122.32
2018-05-08T04:53:10.317Z,94128.36
2018-05-08T04:55:38.761Z,94129.63
2018-05-08T04:58:07.161Z,94145.75
2018-05-08T05:00:35.688Z,94136.19
2018-05-08T05:03:04.127Z,94146.90
2018-05-08T05:05:32.550Z,94147.36
2018-05-08T05:08:01.020Z,94141.79
2018-05-08T05:10:29.445Z,94136.27
2018-05-08T05:12:57.885Z,94133.29
2018-05-08T05:15:26.364Z,94130.55
2018-05-08T05:17:54.882Z,94133.83
2018-05-08T05:20:23.287Z,94128.73
2018-05-08T05:22:51.688Z,94125.25
2018-05-08T05:25:20.375Z,94127.77
2018-05-08T05:27:48.878Z,94129.08
2018-05-08T05:30:17.288Z,94121.97
2018-05-08T05:32:45.721Z,94134.53
2018-05-08T05:35:14.135Z,94106.61
2018-05-08T05:37:42.612Z,94133.42
2018-05-08T05:40:11.016Z,94129.70
2018-05-08T05:42:39.626Z,94131.16
2018-05-08T05:45:08.087Z,94128.27
2018-05-08T05:47:36.561Z,94125.24
2018-05-08T05:50:04.964Z,94126.83
2018-05-08T05:52:33.395Z,94124.97
2018-05-08T05:55:01.841Z,94126.02
2018-05-08T05:57:30.267Z,94124.06
2018-05-08T05:59:58.759Z,94125.96
2018-05-08T06:02:27.146Z,94129.09
2018-05-08T06:04:55.676Z,94127.31
2018-05-08T06:07:24.095Z,94129.98
2018-05-08T06:09:52.601Z,94118.21
2018-05-08T06:12:21.089Z,94121.25
2018-05-08T06:14:49.497Z,94123.23
2018-05-08T06:17:17.960Z,94127.37
2018-05-08T06:19:46.366Z,94126.89
2018-05-08T06:22:14.883Z,94127.16
2018-05-08T06:24:43.288Z,94124.20
2018-05-08T06:27:11.707Z,94118.73
2018-05-08T06:29:40.153Z,94110.91
2018-05-08T06:32:08.565Z,94110.72
2018-05-08T06:34:36.980Z,94118.21
2018-05-08T06:37:05.428Z,94111.75
2018-05-08T06:39:33.852Z,94118.59
2018-05-08T06:42:02.369Z,94117.82
2018-05-08T06:44:30.803Z,94114.48
2018-05-08T06:46:59.305Z,94095.59
2018-05-08T06:49:27.727Z,94112.22
2018-05-08T06:51:56.127Z,94109.18
2018-05-08T06:54:24.600Z,94117.08
2018-05-08T06:56:53.015Z,94103.21
2018-05-08T06:59:21.414Z,94112.72
2018-05-08T07:01:49.846Z,94111.23
2018-05-08T07:04:18.241Z,94106.40
2018-05-08T07:06:46.678Z,94096.06
2018-05-08T07:09:15.193Z,94094.73
2018-05-08T07:11:43.583Z,94108.22
2018-05-08T07:14:12.000Z,94102.56
2018-05-08T07:16:40.444Z,94107.98
2018-05-08T07:19:08.843Z,94101.50
2018-05-08T07:21:37.260Z,94098.47
2018-05-08T07:24:05.804Z,94102.58
2018-05-08T07:26:34.194Z,94107.59
2018-05-08T07:29:02.629Z,94102.77
2018-05-08T07:31:31.060Z,94108.84
2018-05-08T07:33:59.450Z,94106.02
2018-05-08T07:36:28.128Z,94105.46
2018-05-08T07:38:56.535Z,94101.91
2018-05-08T07:41:25.017Z,94097.77
2018-05-08T07:43:53.619Z,94092.86
2018-05-08T07:46:22.004Z,94075.61
2018-05-08T07:48:50.540Z,94090.70
2018-05-08T07:51:18.912Z,94085.98
2018-05-08T07:53:47.358Z,94087.97
2018-05-08T07:56:15.756Z,94093.06
2018-05-08T07:58:44.223Z,94095.21
2018-05-08T08:01:12.624Z,94084.59
2018-05-08T08:03:41.074Z,94085.16
2018-05-08T08:06:09.583Z,94081.84
2018-05-08T08:08:37.976Z,94073.23
2018-05-08T08:11:06.430Z,94078.83
2018-05-08T08:13:34.827Z,94082.55
2018-05-08T08:16:03.314Z,94081.01
2018-05-08T08:18:31.839Z,94077.25
2018-05-08T08:21:00.228Z,94077.11
2018-05-08T08:23:28.658Z,94076.36
2018-05-08T08:25:57.039Z,94075.16
2018-05-08T08:28:25.458Z,94071.61
2018-05-08T08:30:53.873Z,94078.89
2018-05-08T08:33:22.291Z,94079.56
2018-05-08T08:35:50.696Z,94072.80
2018-05-08T08:38:19.140Z,94080.47
2018-05-08T08:40:47.614Z,94080.40
2018-05-08T08:43:16.043Z,94060.48
2018-05-08T08:45:44.484Z,94073.95
2018-05-08T08:48:12.892Z,94076.88
2018-05-08T08:50:41.282Z,94071.23
2018-05-08T08:53:09.707Z,94071.13
2018-05-08T08:55:38.092Z,94065.73
2018-05-08T08:58:06.482Z,94067.38
2018-05-08T09:00:34.940Z,94078.84
2018-05-08T09:03:03.356Z,94062.58
2018-05-08T09:05:31.803Z,94067.16
2018-05-08T09:08:00.226Z,94060.22
2018-05-08T09:10:28.643Z,94055.69
2018-05-08T09:12:57.047Z,94057.91
2018-05-08T09:15:25.483Z,94052.53
2018-05-08T09:17:53.988Z,94047.50
2018-05-08T09:20:22.391Z,94044.30
2018-05-08T09:22:50.872Z,94038.20
2018-05-08T09:25:19.300Z,94034.98
2018-05-08T09:27:47.762Z,94037.36
2018-05-08T09:30:16.185Z,94029.84
2018-05-08T09:32:44.618Z,94035.66
2018-05-08T09:35:13.112Z,94030.28
2018-05-08T09:37:41.584Z,94017.63
2018-05-08T09:40:10.023Z,94019.97
2018-05-08T09:42:38.403Z,94019.17
2018-05-08T09:45:06.799Z,94009.00
2018-05-08T09:47:35.241Z,94027.83
2018-05-08T09:50:03.711Z,94015.77
2018-05-08T09:52:32.131Z,94013.60
2018-05-08T09:55:00.516Z,94012.05
2018-05-08T09:57:28.946Z,94013.77
2018-05-08T09:59:57.359Z,94011.00
2018-05-08T10:02:25.760Z,94005.48
2018-05-08T10:04:54.334Z,94000.81
2018-05-08T10:07:22.727Z,93997.47
2018-05-08T10:09:51.264Z,94001.87
2018-05-08T10:12:19.687Z,94000.67
2018-05-08T10:14:48.096Z,93993.95
2018-05-08T10:17:16.706Z,93996.47
2018-05-08T10:19:45.120Z,93998.41
2018-05-08T10:22:13.548Z,93987.67
2018-05-08T10:24:41.923Z,93975.09
2018-05-08T10:27:10.357Z,93998.98
2018-05-08T10:29:38.783Z,93984.92
2018-05-08T10:32:07.262Z,93982.88
2018-05-08T10:34:35.667Z,93979.53
2018-05-08T10:37:04.071Z,93974.06
2018-05-08T10:39:32.503Z,93974.71
2018-05-08T10:42:01.012Z,93969.33
2018-05-08T10:44:29.483Z,93972.55
2018-05-08T10:46:57.909Z,93970.95
2018-05-08T10:49:26.293Z,93966.32
2018-05-08T10:51:54.763Z,93946.95
2018-05-08T10:54:23.191Z,93967.27
2018-05-08T10:56:51.584Z,93963.38
2018-05-08T10:59:20.070Z,93956.69
2018-05-08T11:01:48.537Z,93942.44
2018-05-08T11:04:16.941Z,93947.56
2018-05-08T11:06:45.346Z,93938.34
2018-05-08T11:09:13.767Z,93923.88
2018-05-08T11:11:42.160Z,93907.80
2018-05-08T11:14:10.603Z,93922.06
2018-05-08T11:16:39.124Z,93928.78
2018-05-08T11:19:07.526Z,93920.78
2018-05-08T11:21:35.946Z,93915.83
2018-05-08T11:24:04.445Z,93912.55
2018-05-08T11:26:32.978Z,93917.55
2018-05-08T11:29:01.336Z,93892.33
2018-05-08T11:31:29.765Z,93908.61
2018-05-08T11:33:58.354Z,93910.35
2018-05-08T11:36:26.744Z,93897.90
2018-05-08T11:38:55.148Z,93904.53
2018-05-08T11:41:23.604Z,93915.28
2018-05-08T11:43:51.992Z,93906.09
2018-05-08T11:46:20.420Z,93899.45
2018-05-08T11:48:48.821Z,93898.96
2018-05-08T11:51:17.217Z,93890.97
2018-05-08T11:53:45.723Z,93886.46
2018-05-08T11:56:14.102Z,93893.70
2018-05-08T11:58:42.604Z,93885.84
2018-05-08T12:01:11.013Z,93882.98
2018-05-08T12:03:39.527Z,93859.30
2018-05-08T12:06:07.972Z,93875.75
2018-05-08T12:08:36.366Z,93874.84
2018-05-08T12:11:04.792Z,93879.20
2018-05-08T12:13:33.243Z,93877.05
2018-05-08T12:16:01.674Z,93839.67
2018-05-08T12:18:30.099Z,93860.58
2018-05-08T12:20:58.543Z,93857.46
2018-05-08T12:23:27.012Z,93866.83
2018-05-08T12:25:55.420Z,93862.29
2018-05-08T12:28:23.839Z,93872.89
2018-05-08T12:30:52.249Z,93864.11
2018-05-08T12:33:20.646Z,93862.48
2018-05-08T12:35:49.067Z,93857.20
2018-05-08T12:38:17.463Z,93852.73
2018-05-08T12:40:45.894Z,93843.70
2018-05-08T12:43:14.288Z,93846.86
2018-05-08T12:45:42.735Z,93846.40
2018-05-08T12:48:11.128Z,93837.97
2018-05-08T12:50:39.527Z,93835.72
2018-05-08T12:53:07.959Z,93840.73
2018-05-08T12:55:36.370Z,93832.79
2018-05-08T12:58:04.905Z,93831.64
2018-05-08T13:00:33.292Z,93822.63
2018-05-08T13:03:01.737Z,93822.04
2018-05-08T13:05:30.355Z,93828.88
2018-05-08T13:07:58.797Z,93829.75
2018-05-08T13:10:27.269Z,93819.55
2018-05-08T13:12:55.724Z,93827.91
2018-05-08T13:15:24.171Z,93811.95
2018-05-08T13:17:52.551Z,93823.12
2018-05-08T13:20:20.984Z,93811.78
2018-05-08T13:22:49.377Z,93810.34
2018-05-08T13:25:17.834Z,93814.63
2018-05-08T13:27:46.243Z,93799.33
2018-05-08T13:30:14.639Z,93813.44
2018-05-08T13:32:43.122Z,93796.62
2018-05-08T13:35:11.672Z,93799.66
2018-05-08T13:37:40.682Z,93792.22
2018-05-08T13:40:09.167Z,93778.16
2018-05-08T13:42:37.913Z,93759.16
2018-05-08T13:45:06.856Z,93787.41
2018-05-08T13:47:35.300Z,93783.52
2018-05-08T13:50:03.803Z,93752.67
2018-05-08T13:52:32.316Z,93782.37
2018-05-08T13:55:00.931Z,93766.90
2018-05-08T13:57:31.323Z,93765.90
2018-05-08T14:00:00.018Z,93783.60
2018-05-08T14:02:28.455Z,93785.02
2018-05-08T14:04:56.923Z,93779.63
2018-05-08T14:07:25.322Z,93787.67
2018-05-08T14:09:54.453Z,93790.34
2018-05-08T14:12:23.004Z,93783.16
2018-05-08T14:14:51.405Z,93779.27
2018-05-08T14:17:19.983Z,93772.59
2018-05-08T14:19:48.403Z,93782.84
2018-05-08T14:22:17.036Z,93784.57
2018-05-08T14:24:45.601Z,93790.59
2018-05-08T14:27:14.043Z,93799.08
2018-05-08T14:29:42.428Z,93796.89
2018-05-08T14:32:10.860Z,93795.92
2018-05-08T14:34:39.263Z,93800.61
2018-05-08T14:37:07.737Z,93803.07
2018-05-08T14:39:36.187Z,93812.02
2018-05-08T14:42:04.652Z,93811.01
2018-05-08T14:44:33.167Z,93810.91
2018-05-08T14:47:01.698Z,93807.63
2018-05-08T14:49:30.132Z,93814.20
2018-05-08T14:51:58.535Z,93815.03
2018-05-08T14:54:26.970Z,93812.85
2018-05-08T14:56:55.395Z,93805.64
2018-05-08T14:59:23.855Z,93811.92
2018-05-08T15:01:52.250Z,93809.73
2018-05-08T15:04:20.809Z,93808.12
2018-05-08T15:06:49.280Z,93810.44
2018-05-08T15:09:17.698Z,93818.66
2018-05-08T15:11:46.114Z,93816.89
2018-05-08T15:14:14.536Z,93816.48
2018-05-08T15:16:44.031Z,93814.84
2018-05-08T15:19:12.461Z,93812.83
2018-05-08T15:21:40.958Z,93810.91
2018-05-08T15:24:09.370Z,93806.83
2018-05-08T15:26:37.791Z,93806.73
2018-05-08T15:29:06.205Z,93807.44
2018-05-08T15:31:34.646Z,93806.02
2018-05-08T15:34:03.195Z,93801.41
2018-05-08T15:36:31.663Z,93810.80
2018-05-08T15:39:00.055Z,93805.52
2018-05-08T15:41:28.512Z,93809.15
2018-05-08T15:43:56.917Z,93802.17
2018-05-08T15:46:25.366Z,93803.77
2018-05-08T15:48:53.898Z,93784.27
2018-05-08T15:51:22.295Z,93801.64
2018-05-08T15:53:50.727Z,93803.57
2018-05-08T15:56:19.111Z,93806.52
2018-05-08T15:58:48.631Z,93786.75
2018-05-08T16:01:17.032Z,93784.34
2018-05-08T16:03:45.515Z,93805.05
2018-05-08T16:06:14.011Z,93800.30
2018-05-08T16:08:42.466Z,93807.73
2018-05-08T16:11:10.856Z,93810.66
2018-05-08T16:13:39.272Z,93805.30
2018-05-08T16:16:07.676Z,93801.75
2018-05-08T16:18:36.319Z,93801.91
2018-05-08T16:21:04.722Z,93797.27
2018-05-08T16:23:33.176Z,93804.77
2018-05-08T16:26:01.565Z,93806.20
2018-05-08T16:28:29.995Z,93803.41
2018-05-08T16:30:58.408Z,93806.09
2018-05-08T16:33:26.826Z,93805.13
2018-05-08T16:35:55.208Z,93808.66
2018-05-08T16:38:23.659Z,93811.11
2018-05-08T16:40:52.076Z,93812.85
2018-05-08T16:43:21.447Z,93820.15
2018-05-08T16:45:49.870Z,93815.31
2018-05-08T16:48:18.519Z,93815.52
2018-05-08T16:50:46.945Z,93828.93
2018-05-08T16:53:15.437Z,93835.09
2018-05-08T16:55:43.890Z,93832.98
2018-05-08T16:58:12.375Z,93829.16
2018-05-08T17:00:40.946Z,93832.59
2018-05-08T17:03:09.402Z,93833.17
2018-05-08T17:05:37.852Z,93845.64
2018-05-08T17:08:06.302Z,93843.44
2018-05-08T17:10:34.834Z,93846.57
2018-05-08T17:13:03.257Z,93846.25
2018-05-08T17:15:31.716Z,93847.45
2018-05-08T17:18:00.142Z,93833.29
2018-05-08T17:20:28.548Z,93857.58
2018-05-08T17:22:56.992Z,93854.50
2018-05-08T17:25:25.440Z,93855.06
2018-05-08T17:27:53.851Z,93865.98
2018-05-08T17:30:22.271Z,93870.82
2018-05-08T17:32:50.819Z,93865.97
2018-05-08T17:35:19.206Z,93870.23
2018-05-08T17:37:47.607Z,93872.83
2018-05-08T17:40:16.035Z,93869.53
2018-05-08T17:42:44.410Z,93871.25
2018-05-08T17:45:12.862Z,93872.30
2018-05-08T17:47:41.332Z,93883.07
2018-05-08T17:50:09.770Z,93882.93
2018-05-08T17:52:38.228Z,93893.40
2018-05-08T17:55:06.800Z,93887.86
2018-05-08T17:57:35.288Z,93893.72
2018-05-08T18:00:03.742Z,93891.34
2018-05-08T18:02:32.216Z,93888.13
2018-05-08T18:05:00.704Z,93896.13
2018-05-08T18:07:29.111Z,93896.54
2018-05-08T18:09:57.555Z,93825.23
2018-05-08T18:12:25.970Z,93894.75
2018-05-08T18:14:54.386Z,93905.52
2018-05-08T18:17:23.052Z,93910.13
2018-05-08T18:19:51.453Z,93917.08
2018-05-08T18:22:19.899Z,93912.19
2018-05-08T18:24:48.335Z,93910.71
2018-05-08T18:27:16.759Z,93918.20
2018-05-08T18:29:45.176Z,93918.44
2018-05-08T18:32:13.567Z,93897.48
2018-05-08T18:34:42.020Z,93921.31
2018-05-08T18:37:10.440Z,93918.78
2018-05-08T18:39:38.893Z,93919.41
2018-05-08T18:42:07.315Z,93919.12
2018-05-08T18:44:35.735Z,93913.62
2018-05-08T18:47:04.197Z,93914.28
2018-05-08T18:49:32.760Z,93915.86
2018-05-08T18:52:01.071Z,93917.59
2018-05-08T18:54:29.512Z,93921.21
2018-05-08T18:56:58.029Z,93914.42
2018-05-08T18:59:26.474Z,93918.06
2018-05-08T19:01:54.884Z,93923.80
2018-05-08T19:04:23.325Z,93929.03
2018-05-08T19:06:51.815Z,93931.63
2018-05-08T19:09:20.458Z,93928.87
2018-05-08T19:11:48.828Z,93932.69
2018-05-08T19:14:17.284Z,93935.02
2018-05-08T19:16:45.781Z,93933.72
2018-05-08T19:19:20.168Z,93932.39
2018-05-08T19:21:49.647Z,93936.03
2018-05-08T19:24:24.274Z,93944.70
2018-05-08T19:26:53.744Z,93943.52
2018-05-08T19:29:28.319Z,93949.27
2018-05-08T19:31:57.885Z,93950.74
2018-05-08T19:34:32.539Z,93952.28
2018-05-08T19:37:07.266Z,93961.71
2018-05-08T19:39:36.030Z,93955.76
2018-05-08T19:42:04.551Z,93954.62
2018-05-08T19:44:33.240Z,93952.34
2018-05-08T19:47:01.626Z,93936.77
2018-05-08T19:49:30.047Z,93949.44
2018-05-08T19:51:58.992Z,93958.19
2018-05-08T19:54:27.371Z,93962.30
2018-05-08T19:56:55.770Z,93952.44
2018-05-08T19:59:24.438Z,93957.88
2018-05-08T20:01:52.826Z,93954.52
2018-05-08T20:04:21.234Z,93944.73
2018-05-08T20:06:50.001Z,93947.23
2018-05-08T20:09:18.398Z,93947.25
2018-05-08T20:11:46.829Z,93938.91
2018-05-08T20:14:15.662Z,93938.42
2018-05-08T20:16:44.101Z,93937.46
2018-05-08T20:19:12.523Z,93939.12
2018-05-08T20:21:41.184Z,93928.98
2018-05-08T20:24:09.760Z,93932.94
2018-05-08T20:26:38.175Z,93937.39
2018-05-08T20:29:06.837Z,93942.16
2018-05-08T20:31:35.236Z,93941.94
2018-05-08T20:34:03.718Z,93920.77
2018-05-08T20:36:32.513Z,93944.03
2018-05-08T20:39:00.882Z,93940.13
2018-05-08T20:41:29.326Z,93941.89
2018-05-08T20:43:58.043Z,93945.02
2018-05-08T20:46:26.441Z,93942.14
2018-05-08T20:48:54.852Z,93946.42
2018-05-08T20:51:23.597Z,93942.27
2018-05-08T20:53:51.980Z,93932.98
2018-05-08T20:56:20.354Z,93930.11
2018-05-08T20:58:48.937Z,93931.60
2018-05-08T21:01:17.389Z,93939.41
2018-05-08T21:03:45.801Z,93942.03
2018-05-08T21:06:14.568Z,93946.41
2018-05-08T21:08:42.990Z,93945.30
2018-05-08T21:11:11.417Z,93947.55
2018-05-08T21:13:39.832Z,93945.34
2018-05-08T21:16:08.231Z,93945.42
2018-05-08T21:18:36.620Z,93940.02
2018-05-08T21:21:05.474Z,93933.78
2018-05-08T21:23:33.883Z,93937.03
2018-05-08T21:26:02.268Z,93933.14
2018-05-08T21:28:36.717Z,93936.30
2018-05-08T21:31:10.873Z,93929.93
2018-05-08T21:33:39.710Z,93932.94
2018-05-08T21:36:08.180Z,93931.30
2018-05-08T21:38:37.446Z,93928.61
2018-05-08T21:41:06.226Z,93933.09
2018-05-08T21:43:34.653Z,93933.92
2018-05-08T21:46:03.028Z,93929.91
2018-05-08T21:48:31.486Z,93935.13
2018-05-08T21:50:59.873Z,93923.55
2018-05-08T21:53:28.292Z,93918.55
2018-05-08T21:55:57.000Z,93922.17
2018-05-08T21:58:25.411Z,93921.92
2018-05-08T22:00:53.777Z,93917.78
2018-05-08T22:03:22.563Z,93924.48
2018-05-08T22:05:50.951Z,93912.75
2018-05-08T22:08:19.369Z,93916.41
2018-05-08T22:10:47.868Z,93919.61
2018-05-08T22:13:16.281Z,93913.91
2018-05-08T22:15:44.677Z,93904.54
2018-05-08T22:18:13.348Z,93907.93
2018-05-08T22:20:41.729Z,93907.22
2018-05-08T22:23:10.275Z,93904.18
2018-05-08T22:25:39.003Z,93908.72
2018-05-08T22:28:07.416Z,93904.59
2018-05-08T22:30:35.818Z,93903.08
2018-05-08T22:33:04.654Z,93895.59
2018-05-08T22:35:33.057Z,93897.06
2018-05-08T22:38:01.451Z,93902.37
2018-05-08T22:40:29.881Z,93898.35
2018-05-08T22:42:58.228Z,93893.45
2018-05-08T22:45:26.618Z,93892.80
2018-05-08T22:47:55.260Z,93897.99
2018-05-08T22:50:23.850Z,93895.94
2018-05-08T22:52:52.503Z,93895.70
2018-05-08T22:55:21.011Z,93893.05
2018-05-08T22:57:49.404Z,93892.59
2018-05-08T23:00:17.811Z,93890.30
2018-05-08T23:02:46.134Z,93886.70
2018-05-08T23:05:14.505Z,93889.33
2018-05-08T23:07:42.986Z,93891.16
2018-05-08T23:10:11.783Z,93887.87
2018-05-08T23:12:40.196Z,93889.89
2018-05-08T23:15:08.575Z,93887.63
2018-05-08T23:17:37.102Z,93888.35
2018-05-08T23:20:05.515Z,93881.42
2018-05-08T23:22:33.915Z,93883.89
2018-05-08T23:25:02.580Z,93886.13
2018-05-08T23:27:30.962Z,93885.31
2018-05-08T23:29:59.352Z,93888.26
2018-05-08T23:32:28.223Z,93888.94
2018-05-08T23:34:56.615Z,93881.55
2018-05-08T23:37:24.999Z,93885.44
2018-05-08T23:39:53.783Z,93883.69
2018-05-08T23:42:22.183Z,93886.41
2018-05-08T23:44:50.568Z,93881.71
2018-05-08T23:47:19.312Z,93874.00
2018-05-08T23:49:47.711Z,93865.56
2018-05-08T23:52:16.106Z,93859.30
2018-05-08T23:54:44.752Z,93862.10
2018-05-08T23:57:13.163Z,93867.99
2018-05-08T23:59:41.570Z,93865.03
